Time;durP1;ratioP1;P1;durP2;ratioP2;P2;SDS_P1;SDS_P2;PMS_P1;PMS_P2;Temp;Humidity;BMP_temperature;BMP_pressure;BME280_temperature;BME280_humidity;BME280_pressure;Samples;Min_cycle;Max_cycle;Signal;HPM_P1;HPM_P2
2022/08/23 00:00:30;;;;;;;1.83;1.00;;;;;;;17.92;100.00;98442.03;5070470;28;20642;-68
2022/08/23 00:03:15;;;;;;;3.30;1.07;;;;;;;17.98;100.00;98438.94;5086958;28;20335;-68
2022/08/23 00:05:50;;;;;;;1.10;0.80;;;;;;;17.96;100.00;98432.91;5096169;28;20715;-66
2022/08/23 00:08:31;;;;;;;1.63;0.73;;;;;;;18.05;100.00;98442.81;5071806;28;20063;-68
2022/08/23 00:14:21;;;;;;;2.77;1.47;;;;;;;18.09;100.00;98438.94;5102880;28;20282;-68
2022/08/23 00:17:00;;;;;;;6.10;1.53;;;;;;;18.13;100.00;98444.03;5106538;28;20298;-68
2022/08/23 00:19:42;;;;;;;8.50;2.37;;;;;;;18.12;100.00;98419.38;5106233;28;20336;-62
2022/08/23 00:22:29;;;;;;;10.60;3.20;;;;;;;18.17;100.00;98426.94;5106628;28;20341;-67
2022/08/23 00:25:10;;;;;;;13.73;3.97;;;;;;;18.20;100.00;98408.22;5106974;28;20335;-67
2022/08/23 00:27:59;;;;;;;17.47;4.13;;;;;;;18.21;100.00;98386.13;5106635;28;20282;-67
2022/08/23 00:31:03;;;;;;;21.37;4.93;;;;;;;18.30;100.00;98380.13;5105487;28;20310;-69
2022/08/23 00:34:00;;;;;;;33.07;6.73;;;;;;;18.36;100.00;98366.41;5004621;28;20289;-68
2022/08/23 00:36:56;;;;;;;36.60;5.82;;;;;;;18.37;100.00;98389.25;4957999;28;20313;-65
2022/08/23 00:39:32;;;;;;;27.63;5.87;;;;;;;18.40;100.00;98385.53;4998148;28;20101;-64
2022/08/23 00:48:44;;;;;;;33.60;7.30;;;;;;;18.45;100.00;98365.69;4985047;28;20317;-66
2022/08/23 00:51:51;;;;;;;35.53;7.13;;;;;;;18.46;100.00;98364.72;4914806;29;20537;-67
2022/08/23 00:54:54;;;;;;;36.93;7.40;;;;;;;18.31;100.00;98352.72;4927251;29;20292;-66
2022/08/23 00:57:51;;;;;;;36.30;7.30;;;;;;;18.44;100.00;98374.56;4927211;29;20340;-64
2022/08/23 01:00:44;;;;;;;37.70;6.53;;;;;;;18.41;100.00;98385.38;4927148;29;20367;-63
2022/08/23 01:03:56;;;;;;;39.73;8.37;;;;;;;18.22;100.00;98353.41;4948552;29;20330;-67
2022/08/23 01:06:59;;;;;;;24.47;5.90;;;;;;;18.30;100.00;98369.53;4914580;29;20317;-61
2022/08/23 01:10:10;;;;;;;23.77;5.07;;;;;;;18.31;100.00;98379.97;4918196;28;20308;-65
2022/08/23 01:13:23;;;;;;;18.00;4.27;;;;;;;18.33;100.00;98398.38;5001040;28;20622;-67
2022/08/23 01:20:13;;;;;;;11.80;3.13;;;;;;;18.29;100.00;98366.03;4933465;29;20385;-68
2022/08/23 01:26:42;;;;;;;54.58;34.83;;;;;;;18.42;100.00;98388.88;4887696;29;20458;-65
2022/08/23 01:29:52;;;;;;;14.03;5.97;;;;;;;18.47;100.00;98390.22;4947686;28;20110;-67
2022/08/23 01:32:59;;;;;;;15.77;7.83;;;;;;;18.47;100.00;98406.09;4990139;28;20325;-63
2022/08/23 01:36:06;;;;;;;12.83;5.67;;;;;;;18.41;100.00;98388.03;4977004;28;20298;-67
2022/08/23 01:44:55;;;;;;;9.40;3.67;;;;;;;18.36;100.00;98355.81;4895629;29;20293;-68
2022/08/23 01:48:07;;;;;;;7.17;2.20;;;;;;;18.40;100.00;98367.84;4857245;29;20266;-67
2022/08/23 01:51:18;;;;;;;4.40;2.10;;;;;;;18.39;100.00;98339.72;4857354;29;21043;-65
2022/08/23 01:54:02;;;;;;;7.63;2.10;;;;;;;18.49;100.00;98292.22;4858288;29;20583;-68
2022/08/23 01:56:53;;;;;;;4.40;1.90;;;;;;;18.67;100.00;98287.25;4910742;29;20334;-64
2022/08/23 02:00:25;;;;;;;5.07;2.10;;;;;;;18.84;100.00;98270.88;4907648;29;20323;-65
2022/08/23 02:03:39;;;;;;;3.97;1.40;;;;;;;18.83;100.00;98263.91;4924130;29;20366;-68
2022/08/23 02:06:54;;;;;;;2.37;1.50;;;;;;;18.80;100.00;98253.59;4948354;28;20290;-65
2022/08/23 02:09:54;;;;;;;2.47;1.20;;;;;;;18.87;100.00;98223.00;4969880;28;20294;-64
2022/08/23 02:12:58;;;;;;;4.63;1.50;;;;;;;19.02;100.00;98214.75;4942692;28;20286;-69
2022/08/23 02:16:02;;;;;;;2.37;1.20;;;;;;;18.87;100.00;98169.22;4931388;28;20074;-64
2022/08/23 02:18:53;;;;;;;6.90;2.70;;;;;;;19.21;100.00;98206.94;4970537;28;20516;-66
2022/08/23 02:21:57;;;;;;;5.40;2.90;;;;;;;19.31;100.00;98209.66;4989336;28;20113;-68
2022/08/23 02:28:33;;;;;;;8.47;6.37;;;;;;;19.54;99.81;98199.72;5109318;28;20312;-66
2022/08/23 02:31:36;;;;;;;4.00;2.63;;;;;;;19.53;99.38;98192.75;5109345;28;20330;-70
2022/08/23 02:34:29;;;;;;;2.70;1.65;;;;;;;19.29;99.83;98172.69;5071734;28;20420;-65
2022/08/23 02:38:03;;;;;;;4.40;1.80;;;;;;;19.17;100.00;98149.94;5110643;28;20047;-65
2022/08/23 02:41:11;;;;;;;7.83;3.17;;;;;;;19.32;100.00;98158.34;5030928;28;20300;-66
2022/08/23 02:44:33;;;;;;;10.73;3.60;;;;;;;19.27;100.00;98166.72;5102249;28;20285;-64
2022/08/23 02:47:36;;;;;;;11.77;3.57;;;;;;;19.22;100.00;98150.38;5075326;28;20047;-70
2022/08/23 02:50:55;;;;;;;8.53;4.57;;;;;;;19.45;100.00;98184.66;5110030;28;20325;-64
2022/08/23 02:54:15;;;;;;;14.47;4.43;;;;;;;19.39;100.00;98197.44;5110353;28;20277;-67
2022/08/23 02:57:21;;;;;;;13.90;5.80;;;;;;;19.42;100.00;98172.50;5109667;28;20611;-67
2022/08/23 03:00:30;;;;;;;17.07;5.60;;;;;;;19.62;100.00;98117.78;5110970;28;20360;-64
2022/08/23 03:04:09;;;;;;;10.83;4.50;;;;;;;19.68;100.00;98138.47;5100199;28;20298;-67
2022/08/23 03:07:30;;;;;;;12.03;4.57;;;;;;;19.81;100.00;98152.31;5104584;28;20361;-67
2022/08/23 03:10:16;;;;;;;13.53;4.67;;;;;;;19.90;100.00;98136.59;5110703;28;20281;-64
2022/08/23 03:13:18;;;;;;;16.47;5.80;;;;;;;20.22;100.00;98142.50;5104590;28;20289;-66
2022/08/23 03:20:36;;;;;;;14.47;5.07;;;;;;;20.19;98.67;98158.69;5113151;28;20290;-65
2022/08/23 03:23:49;;;;;;;;;;;;;;;20.23;98.80;98133.56;5078646;28;20269;-67
2022/08/23 03:30:55;;;;;;;16.03;4.63;;;;;;;20.84;96.53;98099.75;5041572;28;20284;-66
2022/08/23 03:34:43;;;;;;;18.13;5.53;;;;;;;20.92;95.52;98109.66;5041944;28;20302;-67
2022/08/23 03:37:58;;;;;;;17.13;4.90;;;;;;;21.10;94.13;98095.50;4983067;28;20313;-64
2022/08/23 03:41:19;;;;;;;16.83;4.60;;;;;;;21.45;93.18;98048.84;4981604;28;20274;-64
2022/08/23 03:45:10;;;;;;;14.67;5.33;;;;;;;22.09;91.67;98080.75;4951851;28;20305;-64
2022/08/23 03:48:28;;;;;;;;;;;;;;;22.09;89.98;98080.75;4907657;29;20378;-67
2022/08/23 03:52:03;;;;;;;22.63;7.13;;;;;;;22.06;89.36;98070.41;4905447;29;19930;-64
2022/08/23 03:55:52;;;;;;;19.40;6.13;;;;;;;22.35;87.78;98070.22;4907071;29;20383;-68
2022/08/23 03:58:57;;;;;;;13.20;4.93;;;;;;;22.26;88.05;98077.28;4896912;29;20284;-67
2022/08/23 04:01:57;;;;;;;16.08;5.32;;;;;;;22.15;88.40;98069.50;4891983;29;20301;-63
2022/08/23 04:04:59;;;;;;;17.40;5.23;;;;;;;22.06;88.88;98078.41;4804707;29;20234;-62
2022/08/23 04:08:18;;;;;;;19.60;5.95;;;;;;;21.73;89.27;98096.66;4890949;29;20098;-64
2022/08/23 04:15:23;;;;;;;20.10;8.67;;;;;;;21.85;91.07;98063.56;4909770;29;20354;-64
2022/08/23 04:18:34;;;;;;;19.02;5.95;;;;;;;21.78;90.51;98067.81;4962865;29;20640;-64
2022/08/23 04:22:01;;;;;;;14.97;4.73;;;;;;;22.11;90.88;98057.50;4963610;29;20347;-66
2022/08/23 04:29:19;;;;;;;12.47;4.03;;;;;;;22.90;88.18;98053.16;4977939;28;20294;-63
2022/08/23 04:33:07;;;;;;;14.83;3.70;;;;;;;23.24;84.01;98051.38;4965407;28;20076;-66
2022/08/23 04:36:44;;;;;;;15.37;2.87;;;;;;;23.22;81.34;98045.38;4889312;29;20398;-64
2022/08/23 04:46:21;;;;;;;12.70;2.40;;;;;;;22.65;80.19;98038.84;4877688;29;20119;-64
2022/08/23 04:49:17;;;;;;;12.48;1.50;;;;;;;22.42;75.67;98049.16;4852571;29;20049;-65
2022/08/23 04:52:45;;;;;;;9.38;1.70;;;;;;;22.29;76.35;97991.88;4910422;29;20491;-63
2022/08/23 04:56:25;;;;;;;9.68;2.15;;;;;;;22.99;77.27;98057.56;4942798;29;20238;-65
2022/08/23 04:59:38;;;;;;;7.43;1.90;;;;;;;23.03;75.98;98037.59;4831576;29;20065;-61
2022/08/23 05:02:34;;;;;;;10.83;2.47;;;;;;;23.02;72.08;98041.28;4797608;29;20066;-63
2022/08/23 05:05:32;;;;;;;7.57;1.60;;;;;;;22.95;65.56;98058.84;4801347;29;20066;-61
2022/08/23 05:08:28;;;;;;;10.23;1.50;;;;;;;22.92;66.04;98045.84;4811393;29;20051;-61
2022/08/23 05:11:50;;;;;;;8.50;1.33;;;;;;;23.28;66.99;98077.69;4813217;29;20216;-62
2022/08/23 05:15:31;;;;;;;6.43;1.30;;;;;;;23.23;61.92;98070.16;4810709;29;20149;-61
2022/08/23 05:18:43;;;;;;;7.73;1.40;;;;;;;23.13;61.77;98091.59;4781706;29;20269;-61
2022/08/23 05:22:30;;;;;;;10.13;1.83;;;;;;;22.73;60.99;98084.97;4812828;29;20332;-61
2022/08/23 05:25:19;;;;;;;16.50;2.67;;;;;;;22.55;63.17;98085.03;4850970;29;20127;-61
2022/08/23 05:28:52;;;;;;;11.10;1.90;;;;;;;22.58;63.44;98091.88;4914166;29;20328;-62
2022/08/23 05:31:57;;;;;;;8.60;1.43;;;;;;;22.75;63.75;98085.66;4906123;29;20056;-65
2022/08/23 05:35:23;;;;;;;9.47;1.53;;;;;;;22.74;64.59;98080.50;4913294;29;20058;-67
2022/08/23 05:38:17;;;;;;;5.93;1.50;;;;;;;22.78;61.73;98079.19;4839147;29;20283;-65
2022/08/23 05:42:09;;;;;;;8.40;1.70;;;;;;;22.54;62.54;98085.16;4871906;29;20045;-65
2022/08/23 05:45:00;;;;;;;12.13;1.83;;;;;;;22.33;63.54;98073.03;4877239;29;20084;-67
2022/08/23 05:48:01;;;;;;;21.03;1.90;;;;;;;22.08;63.71;98081.75;4876348;29;20057;-66
2022/08/23 05:51:35;;;;;;;8.10;1.37;;;;;;;21.88;63.73;98084.53;4877824;29;20100;-66
2022/08/23 05:54:49;;;;;;;6.33;1.50;;;;;;;21.78;64.58;98094.41;4877368;29;20346;-67
2022/08/23 05:58:42;;;;;;;9.00;1.87;;;;;;;22.18;65.08;98079.84;4788376;29;20095;-66
2022/08/23 06:02:01;;;;;;;6.83;1.47;;;;;;;22.52;63.13;98081.84;4825299;29;20068;-67
2022/08/23 06:04:50;;;;;;;11.23;1.63;;;;;;;22.68;62.89;98092.59;4874907;29;20054;-67
2022/08/23 06:07:47;;;;;;;13.52;1.80;;;;;;;22.31;61.56;98075.00;4888714;29;20045;-66
2022/08/23 06:10:31;;;;;;;9.00;1.30;;;;;;;22.14;59.91;98083.78;4894810;29;20166;-65
2022/08/23 06:13:19;;;;;;;12.47;2.03;;;;;;;22.09;61.76;98091.38;4895168;29;20052;-63
2022/08/23 06:16:04;;;;;;;8.83;1.57;;;;;;;22.05;60.86;98106.00;4955559;28;20054;-63
2022/08/23 06:21:39;;;;;;;8.03;1.40;;;;;;;22.06;62.04;98091.69;4970482;28;20154;-64
2022/08/23 06:24:27;;;;;;;8.07;1.10;;;;;;;21.97;60.48;98104.91;4953599;28;20062;-66
2022/08/23 06:27:15;;;;;;;7.27;2.10;;;;;;;21.85;60.76;98106.09;4969066;28;20171;-66
2022/08/23 06:30:01;;;;;;;9.30;1.70;;;;;;;21.81;60.07;98115.34;4928221;28;20063;-62
2022/08/23 06:32:40;;;;;;;12.50;1.60;;;;;;;21.68;60.79;98114.88;4937502;28;20059;-63
2022/08/23 06:35:33;;;;;;;11.27;1.67;;;;;;;21.76;60.68;98122.94;4969329;28;20313;-62
2022/08/23 06:38:20;;;;;;;16.70;1.80;;;;;;;21.91;60.07;98117.97;4968648;28;20070;-62
2022/08/23 06:41:02;;;;;;;10.40;1.53;;;;;;;21.99;59.11;98107.44;4909123;28;20077;-64
2022/08/23 06:46:37;;;;;;;10.82;1.50;;;;;;;21.87;58.87;98098.81;4970340;28;20043;-64
2022/08/23 06:52:35;;;;;;;7.70;1.17;;;;;;;21.31;59.68;98108.56;4969733;28;20291;-65
2022/08/23 06:55:18;;;;;;;9.40;1.38;;;;;;;21.18;60.18;98096.59;4967788;28;20466;-63
2022/08/23 06:58:15;;;;;;;16.23;1.90;;;;;;;21.13;61.11;98093.56;4968488;28;20051;-62
2022/08/23 07:01:12;;;;;;;13.07;1.90;;;;;;;21.13;60.78;98096.22;4968223;28;20287;-64
2022/08/23 07:07:19;;;;;;;11.63;2.80;;;;;;;20.88;62.67;98095.84;4927465;29;20608;-65
2022/08/23 07:10:18;;;;;;;7.50;1.52;;;;;;;20.85;63.47;98109.41;4927460;28;20393;-65
2022/08/23 07:13:17;;;;;;;5.90;1.30;;;;;;;20.86;63.72;98108.44;5000352;28;20053;-64
2022/08/23 07:15:49;;;;;;;8.97;1.60;;;;;;;20.84;64.15;98110.38;5050288;28;20527;-62
2022/08/23 07:18:48;;;;;;;9.73;1.90;;;;;;;20.85;63.94;98106.75;5079476;28;20444;-62
2022/08/23 07:25:09;;;;;;;7.93;1.87;;;;;;;20.90;64.07;98077.97;5079194;28;20396;-66
2022/08/23 07:28:01;;;;;;;12.67;1.97;;;;;;;20.92;63.98;98120.28;5080061;28;20302;-65
2022/08/23 07:30:42;;;;;;;13.97;2.20;;;;;;;20.77;64.67;98109.31;5081069;28;20520;-66
2022/08/23 07:33:59;;;;;;;9.83;1.70;;;;;;;20.93;64.04;98125.47;5080870;28;20306;-64
2022/08/23 07:36:52;;;;;;;9.33;1.30;;;;;;;20.84;64.64;98118.34;5080715;28;20354;-63
2022/08/23 07:39:36;;;;;;;14.20;1.70;;;;;;;20.78;64.22;98121.56;5079676;28;20283;-64
2022/08/23 07:45:43;;;;;;;8.43;2.03;;;;;;;20.46;64.83;98128.00;5075843;28;20291;-65
2022/08/23 07:48:23;;;;;;;10.43;1.77;;;;;;;20.37;65.30;98131.50;5039036;28;20367;-66
2022/08/23 07:51:25;;;;;;;7.30;1.23;;;;;;;20.24;65.06;98135.25;5047298;28;20342;-65
2022/08/23 07:54:34;;;;;;;12.13;1.60;;;;;;;20.15;65.52;98136.06;5078825;28;20356;-61
2022/08/23 07:57:26;;;;;;;7.47;1.63;;;;;;;20.15;65.46;98141.38;5080413;28;20271;-64
2022/08/23 08:00:14;;;;;;;7.20;1.50;;;;;;;20.09;65.12;98138.44;5079915;28;20290;-62
2022/08/23 08:10:54;;;;;;;14.03;1.70;;;;;;;19.74;66.12;98137.91;5091621;28;20456;-62
2022/08/23 08:14:02;;;;;;;7.03;1.27;;;;;;;19.89;66.16;98126.94;5084986;28;20298;-65
2022/08/23 08:24:13;;;;;;;8.87;1.37;;;;;;;19.47;65.89;98108.53;5005219;28;20284;-64
2022/08/23 08:27:20;;;;;;;9.43;1.80;;;;;;;19.60;65.78;98135.63;5011023;28;20285;-63
2022/08/23 08:30:36;;;;;;;10.80;1.40;;;;;;;19.64;66.43;98137.03;5010373;28;20312;-64
2022/08/23 08:33:54;;;;;;;9.70;1.40;;;;;;;19.82;65.76;98135.44;5012257;28;20297;-62
2022/08/23 08:39:44;;;;;;;7.80;1.43;;;;;;;19.56;64.21;98123.63;5007346;28;20357;-61
2022/08/23 08:43:08;;;;;;;8.50;1.43;;;;;;;19.44;65.06;98130.81;5012233;28;20423;-64
2022/08/23 08:46:25;;;;;;;8.50;1.33;;;;;;;19.19;65.39;98132.09;5009474;28;20356;-64
2022/08/23 08:52:42;;;;;;;7.87;1.53;;;;;;;18.78;67.97;98131.16;4989602;28;20293;-63
2022/08/23 08:55:41;;;;;;;7.67;1.30;;;;;;;18.65;68.85;98122.56;5010229;28;20359;-63
2022/08/23 08:58:23;;;;;;;6.13;1.23;;;;;;;18.59;69.74;98141.56;5011248;28;20341;-64
2022/08/23 09:01:12;;;;;;;8.23;1.60;;;;;;;18.47;69.96;98136.34;5066224;28;20370;-65
2022/08/23 09:03:59;;;;;;;10.83;1.50;;;;;;;18.42;70.63;98149.09;5052906;28;20287;-63
2022/08/23 09:07:25;;;;;;;8.00;1.93;;;;;;;18.17;71.27;98108.00;5092084;28;20317;-65
2022/08/23 09:11:03;;;;;;;8.33;1.73;;;;;;;18.33;71.59;98139.28;5091414;28;20288;-62
2022/08/23 09:14:25;;;;;;;17.90;2.13;;;;;;;18.21;71.99;98137.63;5035932;28;20308;-61
2022/08/23 09:17:21;;;;;;;14.20;2.00;;;;;;;18.07;72.73;98121.09;5016214;28;20394;-61
2022/08/23 09:23:24;;;;;;;15.80;1.93;;;;;;;17.94;73.86;98128.34;5038433;28;20585;-65
2022/08/23 09:26:11;;;;;;;9.30;2.17;;;;;;;17.76;74.08;98092.81;5040567;28;20296;-63
2022/08/23 09:29:20;;;;;;;9.40;1.52;;;;;;;17.92;74.16;98119.69;5023848;28;20659;-63
2022/08/23 09:32:28;;;;;;;9.90;1.90;;;;;;;17.93;74.79;98126.66;5022764;28;20049;-63
2022/08/23 09:35:34;;;;;;;9.73;1.73;;;;;;;17.95;75.39;98134.47;5039515;28;20064;-64
2022/08/23 09:38:45;;;;;;;8.32;1.30;;;;;;;17.93;75.99;98131.13;5011467;28;20315;-63
2022/08/23 09:41:28;;;;;;;18.20;2.17;;;;;;;17.92;75.88;98135.53;5039002;28;20129;-63
2022/08/23 09:44:44;;;;;;;13.70;1.70;;;;;;;17.95;75.44;98134.47;5040414;28;20281;-64
2022/08/23 09:47:47;;;;;;;12.70;2.10;;;;;;;17.90;75.77;98140.13;5040014;28;20276;-62
2022/08/23 09:50:33;;;;;;;9.13;2.33;;;;;;;17.86;76.06;98141.31;5077301;28;20302;-65
2022/08/23 09:53:15;;;;;;;11.67;2.43;;;;;;;17.77;76.10;98131.44;5003475;28;20317;-63
2022/08/23 09:56:02;;;;;;;10.03;1.73;;;;;;;17.75;76.11;98133.41;5092790;28;20291;-61
2022/08/23 10:01:40;;;;;;;9.37;1.83;;;;;;;17.58;76.92;98135.56;5090425;28;20294;-65
2022/08/23 10:04:39;;;;;;;13.17;1.77;;;;;;;17.55;76.66;98143.75;5090254;28;20271;-62
2022/08/23 10:07:35;;;;;;;11.87;2.57;;;;;;;17.57;76.69;98147.09;5036092;28;20301;-62
2022/08/23 10:10:33;;;;;;;10.23;2.33;;;;;;;17.59;76.93;98145.16;5061522;28;20291;-62
2022/08/23 10:13:22;;;;;;;11.77;2.23;;;;;;;17.64;76.46;98137.72;5046926;28;20337;-65
2022/08/23 10:16:15;;;;;;;12.93;2.47;;;;;;;17.65;76.55;98143.84;5060736;28;20307;-64
2022/08/23 10:19:13;;;;;;;9.80;2.07;;;;;;;17.62;76.84;98137.00;5061048;28;20322;-65
2022/08/23 10:22:10;;;;;;;;;;;;;;;17.57;77.07;98141.81;5060281;28;20350;-62
2022/08/23 10:25:14;;;;;;;12.83;1.73;;;;;;;17.47;77.65;98151.41;5011490;28;19963;-63
2022/08/23 10:31:26;;;;;;;11.13;2.20;;;;;;;17.22;77.33;98126.94;5046212;28;20307;-64
2022/08/23 10:34:41;;;;;;;8.67;1.83;;;;;;;17.48;76.86;98157.53;5041853;28;20311;-63
2022/08/23 10:37:54;;;;;;;9.57;1.77;;;;;;;17.29;77.07;98126.44;5028710;28;20287;-65
2022/08/23 10:41:18;;;;;;;9.63;1.83;;;;;;;17.47;77.38;98167.25;5060488;28;20322;-67
2022/08/23 10:44:43;;;;;;;13.83;6.43;;;;;;;17.51;77.19;98162.56;5017396;28;20050;-66
2022/08/23 10:47:41;;;;;;;12.87;2.90;;;;;;;17.54;77.35;98163.16;5015441;28;20323;-66
2022/08/23 10:54:17;;;;;;;14.00;1.97;;;;;;;17.53;77.54;98161.50;4941523;29;20055;-66
2022/08/23 10:57:23;;;;;;;13.13;2.40;;;;;;;17.58;77.22;98154.06;4941634;29;20323;-64
2022/08/23 11:00:42;;;;;;;10.33;2.13;;;;;;;17.56;77.32;98155.97;4941330;29;20284;-63
2022/08/23 11:03:47;;;;;;;10.43;1.57;;;;;;;17.59;77.68;98155.72;4884485;29;20294;-67
2022/08/23 11:07:08;;;;;;;11.53;2.03;;;;;;;17.57;78.27;98173.50;4889260;29;20696;-67
2022/08/23 11:10:16;;;;;;;11.60;2.07;;;;;;;17.51;78.51;98152.84;4898688;29;20368;-65
2022/08/23 11:17:24;;;;;;;9.90;1.67;;;;;;;17.46;79.60;98152.38;4866121;29;20614;-66
2022/08/23 11:31:35;;;;;;;7.03;1.90;;;;;;;17.28;82.61;98156.47;4832556;29;20335;-63
2022/08/23 11:35:15;;;;;;;11.87;1.97;;;;;;;17.18;83.21;98141.31;4903138;29;20305;-65
2022/08/23 11:42:13;;;;;;;14.07;2.00;;;;;;;17.10;83.90;98138.44;4841356;29;20291;-65
2022/08/23 11:45:32;;;;;;;14.00;2.20;;;;;;;17.13;84.14;98151.41;4841682;29;20322;-65
2022/08/23 11:49:06;;;;;;;13.33;3.10;;;;;;;17.12;84.80;98152.34;4857786;29;20290;-64
2022/08/23 11:52:39;;;;;;;16.50;2.40;;;;;;;17.04;85.59;98136.25;4875065;29;20285;-65
2022/08/23 11:56:51;;;;;;;11.27;2.07;;;;;;;16.96;85.94;98136.00;4906929;29;20596;-65
2022/08/23 12:00:56;;;;;;;12.57;2.23;;;;;;;16.98;86.07;98149.94;4870499;29;20290;-64
2022/08/23 12:07:06;;;;;;;11.37;2.20;;;;;;;16.97;86.76;98137.69;4841592;29;20291;-64
2022/08/23 12:10:17;;;;;;;13.63;2.20;;;;;;;16.90;87.57;98132.06;4859934;29;20441;-65
2022/08/23 12:17:12;;;;;;;18.63;2.37;;;;;;;16.78;88.51;98133.81;4860603;29;20279;-67
2022/08/23 12:20:47;;;;;;;11.57;2.70;;;;;;;16.71;88.84;98137.84;4821388;29;20298;-65
2022/08/23 12:33:19;;;;;;;11.23;2.90;;;;;;;16.64;89.83;98120.78;4818043;29;20380;-66
2022/08/23 12:36:37;;;;;;;12.23;2.50;;;;;;;16.57;89.69;98109.03;4822789;29;20624;-66
2022/08/23 12:47:00;;;;;;;10.37;2.53;;;;;;;16.44;89.50;98116.19;4874251;29;20338;-65
2022/08/23 12:50:36;;;;;;;11.17;2.67;;;;;;;16.33;89.81;98107.28;4880371;29;20444;-65
2022/08/23 12:56:56;;;;;;;12.47;2.63;;;;;;;16.28;89.67;98104.16;4853954;29;20064;-66
2022/08/23 13:00:05;;;;;;;11.43;2.23;;;;;;;16.41;89.75;98129.59;4897905;29;20298;-64
2022/08/23 13:02:59;;;;;;;9.50;2.23;;;;;;;16.44;89.54;98124.09;4943073;29;20303;-65
2022/08/23 13:05:50;;;;;;;12.47;2.93;;;;;;;16.49;89.41;98119.31;4911860;29;20326;-65
2022/08/23 13:09:04;;;;;;;11.93;2.63;;;;;;;16.44;89.08;98103.00;4923090;29;20300;-66
2022/08/23 13:11:54;;;;;;;8.17;1.93;;;;;;;16.45;88.87;98105.53;4892700;29;20298;-67
2022/08/23 13:17:41;;;;;;;12.93;2.70;;;;;;;16.37;88.66;98114.03;4868109;29;20309;-64
2022/08/23 13:20:27;;;;;;;15.83;2.53;;;;;;;16.37;88.15;98108.75;4868181;29;20290;-68
2022/08/23 13:24:09;;;;;;;19.40;2.67;;;;;;;16.33;88.00;98109.94;4867136;29;20327;-66
2022/08/23 13:31:50;;;;;;;;;;;;;;;16.22;87.33;98099.31;4768810;30;20300;-66
2022/08/23 13:34:45;;;;;;;11.53;1.90;;;;;;;16.15;87.56;98098.94;4793434;29;19921;-66
2022/08/23 13:37:29;;;;;;;14.90;2.45;;;;;;;16.12;87.46;98082.50;4822714;29;20534;-69
2022/08/23 13:40:22;;;;;;;9.60;2.10;;;;;;;16.02;87.57;98076.25;4822394;29;20058;-65
2022/08/23 13:43:10;;;;;;;9.37;2.43;;;;;;;16.12;87.52;98103.59;4821358;29;20511;-63
2022/08/23 13:46:04;;;;;;;15.27;2.30;;;;;;;16.14;87.31;98113.06;4792505;29;20303;-65
2022/08/23 13:52:18;;;;;;;12.93;2.50;;;;;;;16.21;86.42;98102.91;4821064;29;20691;-66
2022/08/23 13:55:46;;;;;;;12.40;2.60;;;;;;;16.20;85.73;98097.75;4797315;29;20589;-62
2022/08/23 14:01:44;;;;;;;9.40;1.60;;;;;;;16.33;84.23;98106.44;4828319;29;20358;-65
2022/08/23 14:04:33;;;;;;;8.90;1.83;;;;;;;16.39;83.38;98117.34;4913258;29;20378;-69
2022/08/23 14:07:13;;;;;;;12.37;1.90;;;;;;;16.41;83.53;98109.34;4974065;28;20286;-66
2022/08/23 14:09:51;;;;;;;10.03;1.60;;;;;;;16.41;83.44;98109.34;5010265;28;20293;-67
2022/08/23 14:12:44;;;;;;;7.57;1.93;;;;;;;16.41;83.69;98113.78;5008723;28;20552;-64
2022/08/23 14:19:31;;;;;;;9.30;1.57;;;;;;;16.19;83.64;98094.28;4931135;29;20149;-65
2022/08/23 14:22:46;;;;;;;6.77;1.53;;;;;;;16.16;82.86;98083.97;4929616;29;20344;-68
2022/08/23 14:25:26;;;;;;;8.33;1.87;;;;;;;16.18;82.48;98089.97;4925154;29;20292;-64
2022/08/23 14:28:10;;;;;;;8.33;1.00;;;;;;;16.17;81.81;98102.31;4925603;29;20548;-67
2022/08/23 14:31:32;;;;;;;7.50;1.33;;;;;;;16.21;82.10;98095.03;4925641;29;20420;-67
2022/08/23 14:34:26;;;;;;;8.68;1.23;;;;;;;16.17;82.16;98085.66;4925918;29;20299;-65
2022/08/23 14:37:14;;;;;;;11.00;1.20;;;;;;;16.18;82.10;98097.88;4907671;29;20074;-67
2022/08/23 14:40:12;;;;;;;8.37;1.27;;;;;;;16.20;81.87;98097.75;4925134;29;20284;-65
2022/08/23 14:43:15;;;;;;;7.03;1.23;;;;;;;16.13;81.63;98094.75;4925533;29;20300;-65
2022/08/23 14:53:47;;;;;;;5.77;1.20;;;;;;;16.02;81.84;98102.59;4869453;29;20293;-67
2022/08/23 14:56:43;;;;;;;11.90;1.30;;;;;;;16.02;81.83;98108.69;4856851;29;20302;-66
2022/08/23 15:06:04;;;;;;;;;;;;;;;;;;;;;
2022/08/23 15:08:50;;;;;;;8.90;1.37;;;;;;;16.11;81.21;98112.47;5100630;28;20301;-64
2022/08/23 15:11:43;;;;;;;7.67;1.10;;;;;;;16.14;81.19;98106.97;5100884;28;20291;-63
2022/08/23 15:17:29;;;;;;;8.53;1.50;;;;;;;16.23;80.94;98105.47;5101291;28;20444;-67
2022/08/23 15:20:15;;;;;;;8.20;1.10;;;;;;;16.23;81.02;98106.28;5101114;28;20336;-67
2022/08/23 15:26:01;;;;;;;12.48;1.67;;;;;;;16.26;80.95;98090.25;5065224;28;20048;-66
2022/08/23 15:28:41;;;;;;;8.13;1.10;;;;;;;16.32;80.44;98083.66;5100768;28;20056;-68
2022/08/23 15:31:24;;;;;;;6.50;1.20;;;;;;;16.33;80.49;98091.47;5099970;28;20262;-68
2022/08/23 15:34:03;;;;;;;9.40;1.20;;;;;;;16.30;80.71;98091.72;5099732;28;20677;-66
2022/08/23 15:36:52;;;;;;;;;;;;;;;16.30;80.60;98091.72;5100962;28;20094;-64
2022/08/23 15:39:50;;;;;;;7.93;1.30;;;;;;;16.31;80.71;98093.38;5100357;28;19952;-67
2022/08/23 15:45:14;;;;;;;12.30;1.97;;;;;;;16.24;81.25;98093.94;5069456;28;20311;-67
2022/08/23 15:48:03;;;;;;;7.33;1.40;;;;;;;16.26;81.17;98106.06;5018476;28;20274;-67
2022/08/23 15:50:48;;;;;;;7.00;1.37;;;;;;;16.25;81.30;98104.38;5018874;28;20273;-67
2022/08/23 15:53:27;;;;;;;9.38;1.70;;;;;;;16.29;81.02;98113.72;4986978;28;20293;-67
2022/08/23 15:56:41;;;;;;;5.73;1.30;;;;;;;16.36;81.00;98122.03;4974316;28;20050;-66
2022/08/23 15:59:25;;;;;;;6.60;1.30;;;;;;;16.34;80.94;98119.50;5002035;28;20339;-67
2022/08/23 16:05:03;;;;;;;11.33;1.70;;;;;;;16.44;81.29;98139.91;5018127;28;20316;-68
2022/08/23 16:07:42;;;;;;;8.50;1.30;;;;;;;16.47;81.29;98144.94;5018218;28;20562;-71
2022/08/23 16:14:47;;;;;;;11.73;1.53;;;;;;;16.50;81.39;98145.56;4926327;29;20596;-67
2022/08/23 16:17:36;;;;;;;10.30;1.23;;;;;;;16.49;81.50;98140.41;4888905;29;20962;-66
2022/08/23 16:20:17;;;;;;;7.17;1.20;;;;;;;16.48;81.38;98136.09;4890570;29;20332;-65
2022/08/23 16:22:56;;;;;;;10.33;1.40;;;;;;;16.54;81.30;98140.91;4890574;29;20301;-65
2022/08/23 16:25:36;;;;;;;15.97;1.90;;;;;;;16.56;80.35;98139.00;4890417;29;20313;-66
2022/08/23 16:28:25;;;;;;;7.57;1.80;;;;;;;16.65;80.23;98143.59;4945168;28;20299;-67
2022/08/23 16:31:05;;;;;;;10.53;1.80;;;;;;;16.63;80.04;98145.50;4966182;28;20334;-65
2022/08/23 16:33:54;;;;;;;11.30;2.17;;;;;;;16.66;79.95;98150.53;4924922;29;20449;-64
2022/08/23 16:36:38;;;;;;;8.23;1.47;;;;;;;16.70;79.85;98157.28;4966243;29;20302;-64
2022/08/23 16:39:20;;;;;;;7.67;1.40;;;;;;;16.67;79.11;98141.66;4965929;29;20350;-67
2022/08/23 16:42:16;;;;;;;6.40;1.33;;;;;;;16.78;78.24;98144.38;4966181;28;20777;-65
2022/08/23 16:47:45;;;;;;;9.27;1.53;;;;;;;16.80;78.72;98158.28;4963928;28;20334;-65
2022/08/23 16:50:39;;;;;;;12.57;1.55;;;;;;;16.84;78.64;98156.25;4930262;28;20349;-62
2022/08/23 16:53:33;;;;;;;12.27;1.40;;;;;;;16.85;78.40;98157.06;5004763;28;20569;-64
2022/08/23 16:56:15;;;;;;;8.80;1.10;;;;;;;16.66;78.62;98139.16;5004526;28;20293;-64
2022/08/23 16:59:00;;;;;;;8.40;1.10;;;;;;;16.84;78.81;98165.97;5062342;28;20294;-63
2022/08/23 17:02:05;;;;;;;5.97;1.20;;;;;;;16.86;78.33;98171.97;5034070;28;20307;-68
2022/08/23 17:04:49;;;;;;;7.17;1.40;;;;;;;16.85;78.56;98175.53;4952647;28;20369;-65
2022/08/23 17:07:32;;;;;;;8.07;1.50;;;;;;;16.83;78.49;98172.22;4957746;28;20286;-65
2022/08/23 17:13:23;;;;;;;10.73;1.67;;;;;;;16.83;78.72;98182.75;4982098;28;20279;-64
2022/08/23 17:16:09;;;;;;;8.93;1.43;;;;;;;16.83;78.58;98182.75;4969537;28;20290;-64
2022/08/23 17:19:04;;;;;;;7.87;1.40;;;;;;;16.84;78.55;98190.53;4977031;28;20365;-61
2022/08/23 17:21:46;;;;;;;7.40;1.37;;;;;;;16.84;78.10;98194.97;4935440;29;20287;-63
2022/08/23 17:24:32;;;;;;;10.20;1.20;;;;;;;16.91;78.09;98206.75;4965099;28;20310;-64
2022/08/23 17:27:10;;;;;;;11.30;1.57;;;;;;;16.73;78.52;98183.41;4964151;28;20330;-64
2022/08/23 17:30:01;;;;;;;11.53;1.90;;;;;;;16.90;78.25;98213.84;4965406;28;20350;-65